Time;durP1;ratioP1;P1;durP2;ratioP2;P2;SDS_P1;SDS_P2;PMS_P1;PMS_P2;Temp;Humidity;BMP_temperature;BMP_pressure;BME280_temperature;BME280_humidity;BME280_pressure;Samples;Min_cycle;Max_cycle;Signal;HPM_P1;HPM_P2
2023/08/04 00:01:21;;;;;;;14.85;4.10;;;16.60;99.90;;;;;;5052416;28;20024;-76
2023/08/04 00:03:46;;;;;;;19.08;4.57;;;16.60;99.90;;;;;;5051956;28;20028;-76
2023/08/04 00:06:12;;;;;;;15.82;3.45;;;16.60;99.90;;;;;;5047942;28;20053;-76
2023/08/04 00:08:38;;;;;;;12.82;3.50;;;16.60;99.90;;;;;;5048961;28;20028;-76
2023/08/04 00:11:04;;;;;;;13.18;3.67;;;16.60;99.90;;;;;;5052310;28;20029;-76
2023/08/04 00:13:30;;;;;;;10.68;3.28;;;16.60;99.90;;;;;;5051784;28;20029;-76
2023/08/04 00:16:07;;;;;;;16.10;4.07;;;16.60;99.90;;;;;;5052103;28;20460;-76
2023/08/04 00:18:33;;;;;;;10.15;3.35;;;16.70;99.90;;;;;;5048043;28;20017;-76
2023/08/04 00:20:59;;;;;;;10.80;3.38;;;16.60;99.90;;;;;;5044184;28;20025;-75
2023/08/04 00:23:24;;;;;;;18.65;3.85;;;16.60;99.90;;;;;;5035310;28;20034;-76
2023/08/04 00:25:50;;;;;;;13.20;3.67;;;16.60;99.90;;;;;;5051721;28;20143;-75
2023/08/04 00:28:16;;;;;;;14.38;3.05;;;16.60;99.90;;;;;;5042252;28;20295;-75
2023/08/04 00:30:41;;;;;;;16.70;3.95;;;16.60;99.90;;;;;;5051757;28;20013;-75
2023/08/04 00:33:08;;;;;;;10.48;3.08;;;16.60;99.90;;;;;;5050492;28;20024;-75
2023/08/04 00:35:33;;;;;;;15.93;3.95;;;16.60;99.90;;;;;;5045673;28;20032;-75
2023/08/04 00:37:59;;;;;;;15.85;3.55;;;16.60;99.90;;;;;;5053681;28;20021;-75
2023/08/04 00:40:25;;;;;;;12.25;3.45;;;16.60;99.90;;;;;;5073994;28;20024;-75
2023/08/04 00:42:51;;;;;;;14.63;3.53;;;16.60;99.90;;;;;;5073924;28;20052;-75
2023/08/04 00:45:16;;;;;;;10.02;3.17;;;16.50;99.90;;;;;;5065506;28;20032;-76
2023/08/04 00:47:42;;;;;;;14.00;3.55;;;16.50;99.90;;;;;;5052360;28;20021;-75
2023/08/04 00:50:09;;;;;;;10.48;3.35;;;16.50;99.90;;;;;;5042377;28;20460;-75
2023/08/04 00:52:37;;;;;;;13.57;3.60;;;16.50;99.90;;;;;;5048634;28;20106;-74
2023/08/04 00:55:04;;;;;;;14.68;3.83;;;16.50;99.90;;;;;;5044573;28;20035;-75
2023/08/04 00:57:30;;;;;;;13.25;3.63;;;16.50;99.90;;;;;;5051324;28;20480;-74
2023/08/04 00:59:56;;;;;;;11.98;3.42;;;16.60;99.90;;;;;;5050624;28;20044;-74
2023/08/04 01:02:22;;;;;;;13.45;3.35;;;16.60;99.90;;;;;;5051295;28;20095;-74
2023/08/04 01:04:48;;;;;;;16.80;3.53;;;16.50;99.90;;;;;;5050866;28;20487;-74
2023/08/04 01:07:19;;;;;;;19.63;4.00;;;16.50;99.90;;;;;;5051321;28;20017;-74
2023/08/04 01:10:03;;;;;;;14.73;3.50;;;16.60;99.90;;;;;;5046531;28;20018;-74
2023/08/04 01:12:56;;;;;;;19.25;3.75;;;16.60;99.90;;;;;;5050003;28;20017;-75
2023/08/04 01:15:24;;;;;;;13.82;4.10;;;16.60;99.90;;;;;;5050671;28;20021;-75
2023/08/04 01:17:50;;;;;;;14.57;3.75;;;16.60;99.90;;;;;;5050705;28;20027;-75
2023/08/04 01:20:16;;;;;;;15.50;4.00;;;16.60;99.90;;;;;;5043547;28;20484;-75
2023/08/04 01:22:42;;;;;;;13.70;4.13;;;16.60;99.90;;;;;;5050757;28;20043;-75
2023/08/04 01:25:08;;;;;;;12.10;3.50;;;16.60;99.90;;;;;;5046713;28;20025;-75
2023/08/04 01:27:42;;;;;;;14.77;3.60;;;16.60;99.90;;;;;;5050605;28;20021;-75
2023/08/04 01:30:16;;;;;;;13.75;3.90;;;16.60;99.90;;;;;;5038227;28;20472;-75
2023/08/04 01:32:42;;;;;;;13.70;3.80;;;16.60;99.90;;;;;;5038145;28;20376;-75
2023/08/04 01:35:09;;;;;;;13.02;3.97;;;16.60;99.90;;;;;;5033476;28;20017;-75
2023/08/04 01:37:35;;;;;;;9.50;3.47;;;16.60;99.90;;;;;;5045600;28;20187;-75
2023/08/04 01:40:00;;;;;;;10.27;3.63;;;16.60;99.90;;;;;;5050437;28;20096;-75
2023/08/04 01:42:26;;;;;;;12.07;3.83;;;16.60;99.90;;;;;;5050611;28;20494;-75
2023/08/04 01:44:51;;;;;;;11.48;3.72;;;16.60;99.90;;;;;;5040060;28;20037;-75
2023/08/04 01:47:17;;;;;;;12.98;4.28;;;16.60;99.90;;;;;;5050406;28;20015;-74
2023/08/04 01:49:43;;;;;;;13.50;3.70;;;16.70;99.90;;;;;;5050484;28;20078;-75
2023/08/04 01:52:08;;;;;;;15.90;4.28;;;16.70;99.90;;;;;;5050254;28;20138;-75
2023/08/04 01:54:34;;;;;;;15.10;3.80;;;16.70;99.90;;;;;;5048884;28;20120;-75
2023/08/04 01:56:59;;;;;;;10.25;3.47;;;16.60;99.90;;;;;;5050188;28;20551;-75
2023/08/04 01:59:25;;;;;;;12.80;3.67;;;16.60;99.90;;;;;;5041181;28;20547;-75
2023/08/04 02:01:51;;;;;;;14.82;3.53;;;16.60;99.90;;;;;;5037469;28;20016;-75
2023/08/04 02:04:16;;;;;;;14.75;3.78;;;16.60;99.90;;;;;;5048691;28;20024;-75
2023/08/04 02:06:42;;;;;;;12.38;3.50;;;16.70;99.90;;;;;;5050009;28;20535;-75
2023/08/04 02:09:07;;;;;;;10.57;3.33;;;16.60;99.90;;;;;;5045278;28;20017;-75
2023/08/04 02:11:33;;;;;;;10.65;3.38;;;16.60;99.90;;;;;;5050434;28;20473;-75
2023/08/04 02:14:00;;;;;;;14.45;3.45;;;16.60;99.90;;;;;;5051585;28;20108;-75
2023/08/04 02:16:25;;;;;;;12.38;3.35;;;16.60;99.90;;;;;;5052017;28;20025;-75
2023/08/04 02:18:51;;;;;;;11.68;3.10;;;16.60;99.90;;;;;;5054236;28;20028;-75
2023/08/04 02:21:17;;;;;;;13.85;3.38;;;16.50;99.90;;;;;;5051863;28;20353;-75
2023/08/04 02:23:43;;;;;;;17.48;3.53;;;16.50;99.90;;;;;;5054010;28;20082;-75
2023/08/04 02:26:08;;;;;;;11.15;3.55;;;16.50;99.90;;;;;;5053064;28;20048;-75
2023/08/04 02:28:34;;;;;;;10.27;3.13;;;16.50;99.90;;;;;;5052844;28;20028;-75
2023/08/04 02:30:59;;;;;;;10.32;3.40;;;16.50;99.90;;;;;;5053505;28;20017;-75
2023/08/04 02:33:25;;;;;;;10.02;3.40;;;16.50;99.90;;;;;;5046453;28;20026;-75
2023/08/04 02:35:59;;;;;;;8.52;3.20;;;16.40;99.90;;;;;;5039664;28;20044;-75
2023/08/04 02:38:24;;;;;;;16.27;3.83;;;16.40;99.90;;;;;;5045783;28;20036;-75
2023/08/04 02:40:50;;;;;;;16.83;3.40;;;16.40;99.90;;;;;;5047183;28;20017;-75
2023/08/04 02:43:16;;;;;;;11.32;3.53;;;16.40;99.90;;;;;;5045176;28;20028;-75
2023/08/04 02:45:51;;;;;;;11.65;3.13;;;16.40;99.90;;;;;;5046866;28;20024;-75
2023/08/04 02:48:16;;;;;;;10.63;3.33;;;16.40;99.90;;;;;;5053522;28;20023;-75
2023/08/04 02:50:42;;;;;;;8.73;3.20;;;16.40;99.90;;;;;;5047643;28;20375;-75
2023/08/04 02:53:08;;;;;;;14.07;3.38;;;16.50;99.90;;;;;;5048111;28;20563;-75
2023/08/04 02:55:33;;;;;;;15.02;3.40;;;16.50;99.90;;;;;;5053069;28;20027;-75
2023/08/04 02:57:59;;;;;;;9.52;3.13;;;16.40;99.90;;;;;;5053316;28;20139;-76
2023/08/04 03:00:27;;;;;;;11.07;3.08;;;16.40;99.90;;;;;;5050435;28;20379;-75
2023/08/04 03:02:53;;;;;;;6.65;2.90;;;16.40;99.90;;;;;;5051279;28;20036;-75
2023/08/04 03:05:19;;;;;;;8.50;3.20;;;16.50;99.90;;;;;;5053190;28;20017;-75
2023/08/04 03:07:44;;;;;;;7.43;3.33;;;16.50;99.90;;;;;;5053355;28;20017;-75
2023/08/04 03:10:10;;;;;;;9.68;3.40;;;16.50;99.90;;;;;;5039568;28;20464;-75
2023/08/04 03:12:35;;;;;;;11.07;3.50;;;16.50;99.90;;;;;;5045151;28;20025;-75
2023/08/04 03:15:02;;;;;;;10.68;3.60;;;16.50;99.90;;;;;;5038266;28;20024;-75
2023/08/04 03:17:28;;;;;;;8.43;3.67;;;16.50;99.90;;;;;;5037002;28;20021;-75
2023/08/04 03:19:54;;;;;;;12.23;4.30;;;16.50;99.90;;;;;;5040644;28;20100;-75
2023/08/04 03:22:19;;;;;;;10.95;3.50;;;16.50;99.90;;;;;;5047865;28;20122;-75
2023/08/04 03:24:45;;;;;;;11.60;3.17;;;16.50;99.90;;;;;;5042770;28;20025;-74
2023/08/04 03:27:11;;;;;;;8.88;3.70;;;16.50;99.90;;;;;;5052709;28;20154;-74
2023/08/04 03:29:36;;;;;;;7.90;3.60;;;16.60;99.90;;;;;;5053047;28;20074;-74
2023/08/04 03:32:03;;;;;;;8.15;3.55;;;16.50;99.90;;;;;;5053655;28;20430;-74
2023/08/04 03:34:28;;;;;;;7.80;3.40;;;16.60;99.90;;;;;;5075106;28;20049;-74
2023/08/04 03:36:54;;;;;;;7.05;3.58;;;16.60;99.90;;;;;;5069700;28;20028;-74
2023/08/04 03:39:19;;;;;;;7.45;3.30;;;16.60;99.90;;;;;;5046289;28;20017;-74
2023/08/04 03:41:45;;;;;;;8.70;3.33;;;16.60;99.90;;;;;;5046670;28;20060;-75
2023/08/04 03:44:11;;;;;;;6.85;3.50;;;16.60;99.90;;;;;;5051373;28;20052;-75
2023/08/04 03:46:36;;;;;;;7.93;3.30;;;16.60;99.90;;;;;;5048225;28;20022;-75
2023/08/04 03:49:02;;;;;;;6.78;3.40;;;16.60;99.90;;;;;;5049190;28;20079;-75
2023/08/04 03:51:28;;;;;;;9.07;3.17;;;16.60;99.90;;;;;;5052443;28;20411;-75
2023/08/04 03:53:53;;;;;;;7.32;3.53;;;16.60;99.90;;;;;;5052591;28;20388;-74
2023/08/04 03:56:19;;;;;;;8.70;3.75;;;16.60;99.90;;;;;;5052782;28;20428;-75
2023/08/04 03:58:44;;;;;;;7.85;3.47;;;16.60;99.90;;;;;;5049493;28;20056;-75
2023/08/04 04:01:10;;;;;;;6.70;3.53;;;16.60;99.90;;;;;;5050922;28;20032;-74
2023/08/04 04:03:36;;;;;;;10.07;3.70;;;16.60;99.90;;;;;;5050883;28;20395;-74
2023/08/04 04:06:01;;;;;;;8.00;3.97;;;16.60;99.90;;;;;;5042752;28;20029;-74
2023/08/04 04:08:27;;;;;;;8.90;3.33;;;16.60;99.90;;;;;;5036819;28;20021;-75
2023/08/04 04:10:55;;;;;;;6.18;3.22;;;16.70;99.90;;;;;;5044544;28;20018;-75
2023/08/04 04:13:21;;;;;;;9.15;3.55;;;16.60;99.90;;;;;;5047205;28;20333;-75
2023/08/04 04:15:47;;;;;;;8.93;3.55;;;16.60;99.90;;;;;;5052401;28;20040;-75
2023/08/04 04:18:12;;;;;;;9.65;3.55;;;16.60;99.90;;;;;;5052285;28;20025;-75
2023/08/04 04:20:38;;;;;;;8.05;3.50;;;16.60;99.90;;;;;;5052299;28;20044;-75
2023/08/04 04:23:04;;;;;;;6.18;3.47;;;16.60;99.90;;;;;;5052522;28;20033;-75
2023/08/04 04:25:29;;;;;;;10.20;3.42;;;16.60;99.90;;;;;;5052198;28;20025;-74
2023/08/04 04:27:55;;;;;;;9.48;4.18;;;16.60;99.90;;;;;;5048108;28;20014;-75
2023/08/04 04:30:21;;;;;;;10.10;4.10;;;16.70;99.90;;;;;;5052303;28;20096;-75
2023/08/04 04:32:46;;;;;;;10.35;4.13;;;16.60;99.90;;;;;;5039958;28;20063;-75
2023/08/04 04:35:12;;;;;;;7.80;4.18;;;16.70;99.90;;;;;;5051781;28;20023;-75
2023/08/04 04:37:37;;;;;;;10.23;4.20;;;16.70;99.90;;;;;;5050777;28;20023;-75
2023/08/04 04:40:04;;;;;;;11.98;3.88;;;16.70;99.90;;;;;;5046962;28;20056;-74
2023/08/04 04:42:32;;;;;;;8.25;3.92;;;16.70;99.90;;;;;;5050512;28;20147;-75
2023/08/04 04:44:58;;;;;;;10.75;4.63;;;16.70;99.90;;;;;;5047530;28;20104;-75
2023/08/04 04:47:23;;;;;;;9.45;4.20;;;16.70;99.90;;;;;;5050525;28;20531;-75
2023/08/04 04:49:49;;;;;;;8.55;4.25;;;16.70;99.90;;;;;;5052166;28;20105;-75
2023/08/04 04:52:30;;;;;;;9.07;4.35;;;16.70;99.90;;;;;;5046468;28;20091;-75
2023/08/04 04:54:55;;;;;;;12.35;4.05;;;16.70;99.90;;;;;;5047716;28;20044;-75
2023/08/04 04:57:21;;;;;;;10.25;4.55;;;16.70;99.90;;;;;;5051429;28;20021;-75
2023/08/04 04:59:47;;;;;;;11.05;4.40;;;16.70;99.90;;;;;;5051379;28;20049;-75
2023/08/04 05:02:13;;;;;;;10.25;4.10;;;16.70;99.90;;;;;;5050466;28;20017;-75
2023/08/04 05:04:38;;;;;;;13.27;4.85;;;16.70;99.90;;;;;;5051286;28;20044;-74
2023/08/04 05:07:04;;;;;;;11.45;4.28;;;16.70;99.90;;;;;;5051551;28;20025;-75
2023/08/04 05:09:30;;;;;;;11.82;4.35;;;16.60;99.90;;;;;;5040648;28;20033;-75
2023/08/04 05:11:56;;;;;;;12.65;4.43;;;16.70;99.90;;;;;;5039512;28;20013;-75
2023/08/04 05:14:22;;;;;;;10.38;4.03;;;16.70;99.90;;;;;;5051571;28;20013;-75
2023/08/04 05:16:47;;;;;;;9.90;3.90;;;16.70;99.90;;;;;;5042447;28;20380;-75
2023/08/04 05:19:13;;;;;;;10.95;4.10;;;16.70;99.90;;;;;;5044810;28;20537;-75
2023/08/04 05:21:38;;;;;;;11.43;4.00;;;16.70;99.90;;;;;;5050980;28;20526;-75
2023/08/04 05:24:04;;;;;;;12.40;4.00;;;16.70;99.90;;;;;;5051230;28;20056;-75
2023/08/04 05:26:30;;;;;;;7.68;3.65;;;16.70;99.90;;;;;;5051100;28;20119;-75
2023/08/04 05:28:55;;;;;;;9.43;3.40;;;16.70;99.90;;;;;;5051036;28;20071;-75
2023/08/04 05:31:21;;;;;;;8.10;3.50;;;16.70;99.90;;;;;;5050789;28;20019;-74
2023/08/04 05:33:47;;;;;;;12.65;3.45;;;16.70;99.90;;;;;;5051025;28;20025;-75
2023/08/04 05:36:12;;;;;;;10.13;3.45;;;16.70;99.90;;;;;;5048625;28;20043;-74
2023/08/04 05:38:38;;;;;;;12.13;3.47;;;16.70;99.90;;;;;;5051176;28;20029;-75
2023/08/04 05:41:05;;;;;;;11.77;3.10;;;16.70;99.90;;;;;;5050581;28;20064;-74
2023/08/04 05:43:30;;;;;;;10.63;3.20;;;16.60;99.90;;;;;;5050572;28;20112;-75
2023/08/04 05:46:02;;;;;;;7.95;2.92;;;16.60;99.90;;;;;;5050811;28;20112;-75
2023/08/04 05:48:29;;;;;;;8.50;3.10;;;16.60;99.90;;;;;;5051097;28;20055;-75
2023/08/04 05:50:56;;;;;;;12.45;3.30;;;16.60;99.90;;;;;;5050689;28;20025;-75
2023/08/04 05:53:21;;;;;;;9.45;3.13;;;16.60;99.90;;;;;;5046607;28;20416;-75
2023/08/04 05:55:47;;;;;;;7.35;2.85;;;16.60;99.90;;;;;;5049359;28;20021;-75
2023/08/04 05:58:12;;;;;;;7.50;3.38;;;16.70;99.90;;;;;;5045028;28;20049;-75
2023/08/04 06:00:38;;;;;;;9.57;3.17;;;16.70;99.90;;;;;;5049340;28;20032;-75
2023/08/04 06:03:06;;;;;;;11.25;3.40;;;16.70;99.90;;;;;;5049490;28;20039;-75
2023/08/04 06:05:32;;;;;;;6.43;3.25;;;16.70;99.90;;;;;;5049815;28;20076;-75
2023/08/04 06:07:58;;;;;;;7.60;3.20;;;16.80;99.90;;;;;;5050312;28;20029;-75
2023/08/04 06:10:23;;;;;;;10.18;3.72;;;16.80;99.90;;;;;;5038460;28;20032;-75
2023/08/04 06:12:49;;;;;;;9.65;3.30;;;16.90;99.90;;;;;;5040293;28;20033;-75
2023/08/04 06:15:16;;;;;;;12.20;3.25;;;16.80;99.90;;;;;;5050229;28;20104;-75
2023/08/04 06:17:42;;;;;;;14.38;3.22;;;16.80;99.90;;;;;;5049805;28;20024;-75
2023/08/04 06:20:08;;;;;;;10.80;2.75;;;16.70;99.90;;;;;;5037059;28;20013;-75
2023/08/04 06:22:34;;;;;;;6.93;2.70;;;16.70;99.90;;;;;;5050094;28;20035;-75
2023/08/04 06:25:01;;;;;;;10.15;2.95;;;16.60;99.90;;;;;;5050408;28;20051;-75
2023/08/04 06:27:27;;;;;;;8.10;2.90;;;16.60;99.90;;;;;;5062070;28;20037;-75
2023/08/04 06:29:52;;;;;;;9.85;2.50;;;16.60;99.90;;;;;;5074328;28;20065;-75
2023/08/04 06:32:18;;;;;;;6.88;2.88;;;16.60;99.90;;;;;;5058904;28;20025;-75
2023/08/04 06:34:44;;;;;;;10.25;3.22;;;16.70;99.90;;;;;;5048302;28;20480;-75
2023/08/04 06:37:09;;;;;;;8.65;2.90;;;16.70;99.90;;;;;;5050180;28;20017;-75
2023/08/04 06:39:35;;;;;;;9.52;3.00;;;16.80;99.90;;;;;;5039238;28;20086;-75
2023/08/04 06:42:00;;;;;;;8.63;3.03;;;16.80;99.90;;;;;;5048525;28;20017;-75
2023/08/04 06:44:26;;;;;;;12.18;3.00;;;16.80;99.90;;;;;;5042824;28;20021;-75
2023/08/04 06:46:52;;;;;;;10.40;3.17;;;16.90;99.90;;;;;;5049560;28;20035;-75
2023/08/04 06:49:17;;;;;;;9.15;2.97;;;17.00;99.90;;;;;;5043264;28;20028;-75
2023/08/04 06:51:43;;;;;;;13.15;3.00;;;17.10;99.90;;;;;;5036639;28;20147;-75
2023/08/04 06:54:08;;;;;;;11.13;3.08;;;17.10;99.90;;;;;;5049891;28;20017;-75
2023/08/04 06:56:34;;;;;;;10.43;3.13;;;17.20;99.90;;;;;;5050603;28;20017;-75
2023/08/04 06:59:00;;;;;;;11.27;2.70;;;17.20;99.90;;;;;;5050307;28;20041;-75
2023/08/04 07:01:25;;;;;;;9.05;2.58;;;17.20;99.90;;;;;;5053104;28;20040;-75
2023/08/04 07:03:51;;;;;;;12.23;3.00;;;17.20;99.90;;;;;;5051714;28;20029;-75
2023/08/04 07:06:16;;;;;;;9.10;2.78;;;17.10;99.90;;;;;;5052924;28;20032;-75
2023/08/04 07:08:42;;;;;;;14.13;3.03;;;17.20;99.90;;;;;;5051692;28;20381;-75
2023/08/04 07:11:18;;;;;;;10.95;3.05;;;17.20;99.90;;;;;;5053204;28;20467;-75
2023/08/04 07:13:44;;;;;;;9.82;2.45;;;17.20;99.90;;;;;;5050325;28;20076;-75
2023/08/04 07:16:10;;;;;;;18.55;3.40;;;17.20;99.90;;;;;;5037321;28;20057;-75
2023/08/04 07:18:36;;;;;;;12.57;2.80;;;17.20;99.90;;;;;;5044573;28;20531;-75
2023/08/04 07:21:08;;;;;;;16.20;3.00;;;17.30;99.90;;;;;;5052692;28;20013;-75
2023/08/04 07:23:33;;;;;;;12.27;2.97;;;17.30;99.90;;;;;;5052467;28;20070;-75
2023/08/04 07:25:59;;;;;;;12.45;2.83;;;17.40;99.90;;;;;;5042151;28;20025;-75
2023/08/04 07:28:25;;;;;;;9.65;2.67;;;17.40;99.90;;;;;;5045569;28;20029;-75
2023/08/04 07:30:51;;;;;;;15.00;2.72;;;17.50;99.90;;;;;;5052181;28;20393;-75
2023/08/04 07:33:16;;;;;;;8.85;2.70;;;17.50;99.90;;;;;;5041695;28;20044;-75
2023/08/04 07:35:42;;;;;;;9.93;2.63;;;17.50;99.90;;;;;;5052337;28;20365;-75
2023/08/04 07:38:08;;;;;;;10.10;2.63;;;17.50;99.90;;;;;;5052497;28;20024;-75
2023/08/04 07:40:38;;;;;;;8.73;2.60;;;17.60;99.90;;;;;;5052496;28;20033;-75
2023/08/04 07:43:05;;;;;;;9.10;2.53;;;17.60;99.90;;;;;;5049349;28;20355;-75
2023/08/04 07:45:35;;;;;;;12.20;2.90;;;17.70;99.90;;;;;;5048663;28;20031;-75
2023/08/04 07:48:00;;;;;;;11.35;2.53;;;17.80;99.90;;;;;;5052543;28;20029;-75
2023/08/04 07:50:26;;;;;;;17.33;3.22;;;18.00;99.90;;;;;;5052798;28;20048;-75
2023/08/04 07:52:52;;;;;;;8.05;2.30;;;18.10;99.90;;;;;;5052771;28;20024;-75
2023/08/04 07:55:17;;;;;;;12.10;2.15;;;18.30;99.90;;;;;;5052589;28;20102;-74
2023/08/04 07:57:43;;;;;;;10.57;2.22;;;18.40;99.90;;;;;;5052226;28;20036;-75
2023/08/04 08:00:09;;;;;;;11.00;2.25;;;18.40;99.90;;;;;;5052937;28;20438;-75
2023/08/04 08:02:35;;;;;;;9.52;2.08;;;18.40;99.90;;;;;;5052227;28;20021;-75
2023/08/04 08:05:00;;;;;;;11.52;2.20;;;18.40;99.90;;;;;;5052713;28;20032;-75
2023/08/04 08:07:26;;;;;;;9.13;2.47;;;18.40;99.90;;;;;;5051701;28;20078;-75
2023/08/04 08:09:52;;;;;;;12.15;2.10;;;18.30;99.90;;;;;;5052814;28;20439;-75
2023/08/04 08:12:17;;;;;;;8.38;2.20;;;18.40;99.90;;;;;;5047084;28;20018;-75
2023/08/04 08:14:43;;;;;;;9.25;2.00;;;18.40;99.90;;;;;;5040309;28;20040;-75
2023/08/04 08:17:09;;;;;;;10.05;2.08;;;18.50;99.90;;;;;;5052438;28;20019;-75
2023/08/04 08:19:34;;;;;;;10.20;1.90;;;18.50;99.90;;;;;;5051057;28;20056;-75
2023/08/04 08:22:00;;;;;;;12.07;1.85;;;18.50;99.90;;;;;;5052830;28;20025;-75
2023/08/04 08:24:26;;;;;;;9.00;1.73;;;18.50;99.90;;;;;;5052390;28;20094;-74
2023/08/04 08:26:51;;;;;;;4.93;1.65;;;18.50;99.90;;;;;;5047623;28;20025;-74
2023/08/04 08:29:17;;;;;;;6.05;1.30;;;18.50;99.90;;;;;;5048372;28;20431;-74
2023/08/04 08:31:43;;;;;;;5.22;1.33;;;18.50;99.90;;;;;;5044237;28;20025;-74
2023/08/04 08:34:10;;;;;;;5.47;1.42;;;18.50;99.90;;;;;;5047479;28;20059;-74
2023/08/04 08:36:35;;;;;;;5.18;1.45;;;18.70;99.90;;;;;;5051455;28;20115;-74
2023/08/04 08:39:01;;;;;;;6.22;1.50;;;18.80;99.90;;;;;;5051498;28;20151;-74
2023/08/04 08:41:27;;;;;;;7.43;1.20;;;18.90;99.90;;;;;;5042504;28;20013;-74
2023/08/04 08:43:53;;;;;;;5.45;1.40;;;19.00;99.90;;;;;;5051405;28;20021;-74
2023/08/04 08:46:18;;;;;;;8.05;1.40;;;19.10;99.90;;;;;;5051465;28;20101;-74
2023/08/04 08:48:46;;;;;;;5.63;1.30;;;19.30;99.90;;;;;;5044132;28;20025;-74
2023/08/04 08:51:17;;;;;;;5.13;1.48;;;19.40;99.90;;;;;;5050112;28;20430;-74
2023/08/04 08:53:44;;;;;;;6.88;1.30;;;19.60;99.90;;;;;;5046487;28;20147;-74
2023/08/04 08:56:10;;;;;;;7.13;1.25;;;19.70;99.90;;;;;;5051683;28;20017;-74
2023/08/04 08:58:37;;;;;;;10.10;1.52;;;19.80;99.90;;;;;;5045076;28;20544;-74
2023/08/04 09:01:03;;;;;;;6.63;1.42;;;20.00;99.90;;;;;;5051406;28;20043;-74
2023/08/04 09:03:28;;;;;;;3.28;1.23;;;20.20;99.90;;;;;;5049174;28;20024;-74
2023/08/04 09:05:55;;;;;;;4.38;1.05;;;20.30;99.90;;;;;;5051525;28;20049;-74
2023/08/04 09:08:21;;;;;;;5.22;1.23;;;20.30;99.90;;;;;;5050860;28;20075;-74
2023/08/04 09:10:47;;;;;;;7.25;1.60;;;20.40;99.90;;;;;;5044077;28;20022;-74
2023/08/04 09:13:14;;;;;;;7.38;1.50;;;20.50;99.90;;;;;;5036260;28;20419;-74
2023/08/04 09:15:48;;;;;;;8.55;1.67;;;20.40;99.90;;;;;;5051146;28;20043;-74
2023/08/04 09:18:29;;;;;;;8.38;1.80;;;20.40;99.90;;;;;;5050751;28;20443;-74
2023/08/04 09:21:01;;;;;;;6.93;1.27;;;20.10;99.90;;;;;;5053678;28;20036;-74
2023/08/04 09:23:28;;;;;;;6.32;1.40;;;20.00;99.90;;;;;;5062255;28;20025;-74
2023/08/04 09:25:54;;;;;;;5.22;1.30;;;19.80;99.90;;;;;;5056195;28;20037;-74
2023/08/04 09:28:20;;;;;;;5.70;1.00;;;19.70;99.90;;;;;;5053518;28;20027;-74
2023/08/04 09:31:10;;;;;;;8.10;1.63;;;19.80;99.90;;;;;;5039058;28;20030;-74
2023/08/04 09:33:41;;;;;;;5.97;1.33;;;20.00;99.90;;;;;;5041924;28;20030;-74
2023/08/04 09:36:15;;;;;;;5.88;1.35;;;20.30;99.90;;;;;;5046220;28;20100;-74
2023/08/04 09:38:42;;;;;;;5.82;1.50;;;20.40;99.90;;;;;;5044119;28;20025;-74
2023/08/04 09:41:12;;;;;;;7.05;1.58;;;20.40;99.90;;;;;;5050547;28;20013;-75
2023/08/04 09:43:48;;;;;;;5.68;1.38;;;20.30;99.90;;;;;;5050374;28;20064;-75
2023/08/04 09:46:15;;;;;;;5.22;1.40;;;20.30;99.90;;;;;;5044984;28;20453;-75
2023/08/04 09:48:41;;;;;;;6.97;1.70;;;20.20;99.90;;;;;;5043465;28;20035;-75
2023/08/04 09:51:09;;;;;;;4.25;1.15;;;20.10;99.90;;;;;;5050784;28;20021;-75
2023/08/04 09:53:40;;;;;;;4.72;1.27;;;20.10;99.90;;;;;;5050367;28;20218;-75
2023/08/04 09:56:08;;;;;;;5.10;1.15;;;20.20;99.90;;;;;;5050570;28;20013;-75
2023/08/04 09:58:34;;;;;;;4.50;1.40;;;20.20;99.90;;;;;;5047261;28;20554;-75
2023/08/04 10:01:02;;;;;;;3.03;1.10;;;20.30;99.90;;;;;;5050263;28;20096;-74
2023/08/04 10:03:28;;;;;;;2.60;1.10;;;20.50;99.90;;;;;;5050026;28;20439;-74
2023/08/04 10:06:03;;;;;;;3.65;1.23;;;20.70;99.90;;;;;;5050199;28;20021;-74
2023/08/04 10:08:33;;;;;;;3.65;1.00;;;20.80;99.90;;;;;;5048650;28;20021;-75
2023/08/04 10:11:00;;;;;;;3.55;1.00;;;20.90;99.90;;;;;;5041168;28;20442;-75
2023/08/04 10:13:32;;;;;;;3.20;1.00;;;20.90;99.90;;;;;;5048973;28;20358;-75
2023/08/04 10:16:01;;;;;;;3.33;1.10;;;20.90;99.90;;;;;;5042521;28;20021;-75
2023/08/04 10:18:44;;;;;;;3.88;1.20;;;20.90;99.90;;;;;;5041477;28;20375;-75
2023/08/04 10:21:10;;;;;;;4.05;1.00;;;21.00;99.90;;;;;;5050303;28;20021;-75
2023/08/04 10:23:36;;;;;;;4.70;1.02;;;21.10;99.90;;;;;;5050616;28;20386;-75
2023/08/04 10:26:02;;;;;;;2.33;0.70;;;21.30;99.90;;;;;;5044938;28;20033;-75
2023/08/04 10:28:31;;;;;;;3.13;0.77;;;21.40;99.90;;;;;;5046821;28;20491;-75
2023/08/04 10:31:04;;;;;;;2.13;0.80;;;21.40;99.90;;;;;;5049889;28;20096;-75
2023/08/04 10:33:30;;;;;;;2.97;1.00;;;21.50;99.90;;;;;;5045883;28;20022;-75
2023/08/04 10:36:09;;;;;;;2.92;0.65;;;21.60;99.90;;;;;;5050875;28;20021;-75
2023/08/04 10:38:46;;;;;;;2.78;0.80;;;21.70;99.90;;;;;;5039455;28;20032;-75
2023/08/04 10:41:12;;;;;;;3.05;0.85;;;21.70;99.90;;;;;;5050458;28;20036;-75
2023/08/04 10:43:39;;;;;;;2.22;0.93;;;21.50;99.90;;;;;;5046534;28;20021;-75
2023/08/04 10:46:11;;;;;;;1.98;0.98;;;21.40;99.90;;;;;;5055695;28;20017;-75
2023/08/04 10:48:40;;;;;;;4.75;0.98;;;21.20;99.90;;;;;;5055248;28;20542;-75
2023/08/04 10:51:08;;;;;;;3.10;1.10;;;21.10;99.90;;;;;;5053541;28;20020;-75
2023/08/04 10:53:33;;;;;;;7.50;1.35;;;21.20;99.90;;;;;;5052947;28;20190;-75
2023/08/04 10:56:00;;;;;;;3.17;1.00;;;21.30;99.90;;;;;;5054331;28;20565;-75
2023/08/04 10:58:27;;;;;;;2.25;0.88;;;21.40;99.90;;;;;;5050039;28;20080;-75
2023/08/04 11:00:55;;;;;;;2.63;0.85;;;21.50;99.90;;;;;;5053880;28;20036;-75
2023/08/04 11:03:22;;;;;;;3.67;1.05;;;21.50;99.90;;;;;;5052800;28;20036;-75
2023/08/04 11:05:49;;;;;;;2.58;1.00;;;21.70;99.90;;;;;;5054020;28;20017;-75
2023/08/04 11:08:16;;;;;;;5.40;1.08;;;21.80;99.90;;;;;;5053607;28;20407;-75
2023/08/04 11:10:56;;;;;;;3.05;1.10;;;21.90;99.90;;;;;;5042099;28;20229;-75
2023/08/04 11:13:23;;;;;;;3.05;1.08;;;22.00;99.90;;;;;;5053210;28;20074;-75
2023/08/04 11:15:50;;;;;;;3.95;1.15;;;22.30;99.90;;;;;;5044259;28;20321;-75
2023/08/04 11:18:24;;;;;;;4.05;1.23;;;22.40;99.90;;;;;;5045523;28;20053;-75
2023/08/04 11:20:50;;;;;;;3.42;1.10;;;22.40;99.90;;;;;;5048338;28;20029;-75
2023/08/04 11:23:24;;;;;;;5.00;1.00;;;22.10;99.90;;;;;;5046245;28;20034;-75
2023/08/04 11:25:49;;;;;;;4.80;1.10;;;22.00;99.90;;;;;;5053700;28;20024;-75
2023/08/04 11:28:15;;;;;;;4.55;1.15;;;22.00;99.90;;;;;;5050270;28;20020;-75
2023/08/04 11:30:41;;;;;;;3.20;1.25;;;21.90;99.90;;;;;;5054047;28;20028;-76
2023/08/04 11:33:07;;;;;;;5.57;1.40;;;21.80;99.90;;;;;;5047688;28;20057;-76
2023/08/04 11:35:33;;;;;;;6.10;1.35;;;21.70;99.90;;;;;;5048113;28;20091;-75
2023/08/04 11:38:00;;;;;;;4.22;1.05;;;21.70;99.90;;;;;;5044493;28;20021;-75
2023/08/04 11:40:26;;;;;;;2.25;0.95;;;21.60;99.90;;;;;;5055124;28;20021;-75
2023/08/04 11:42:52;;;;;;;3.58;1.10;;;21.70;99.90;;;;;;5053438;28;20372;-75
2023/08/04 11:45:18;;;;;;;3.60;0.88;;;21.70;99.90;;;;;;5047533;28;20026;-76
2023/08/04 11:47:45;;;;;;;3.88;1.00;;;21.70;99.90;;;;;;5053421;28;20025;-75
2023/08/04 11:50:10;;;;;;;6.25;1.00;;;21.70;99.90;;;;;;5047986;28;20139;-76
2023/08/04 11:52:39;;;;;;;2.88;0.90;;;21.60;99.90;;;;;;5053433;28;20057;-75
2023/08/04 11:55:06;;;;;;;4.55;1.00;;;21.60;99.90;;;;;;5048674;28;20379;-76
2023/08/04 11:57:32;;;;;;;6.45;1.08;;;21.50;99.90;;;;;;5053262;28;20029;-76
2023/08/04 11:59:58;;;;;;;2.47;0.85;;;21.50;99.90;;;;;;5050363;28;20148;-76
2023/08/04 12:02:26;;;;;;;2.65;0.90;;;21.50;99.90;;;;;;5053183;28;20443;-75
2023/08/04 12:05:11;;;;;;;3.67;1.00;;;21.60;99.90;;;;;;5052162;28;20051;-75
2023/08/04 12:07:36;;;;;;;2.50;0.90;;;21.50;99.90;;;;;;5043743;28;20048;-75
2023/08/04 12:10:03;;;;;;;3.83;0.90;;;21.50;99.90;;;;;;5052437;28;20017;-75
2023/08/04 12:12:39;;;;;;;3.28;0.80;;;21.30;99.90;;;;;;5039875;28;20076;-75
2023/08/04 12:15:06;;;;;;;2.20;0.80;;;21.30;99.90;;;;;;5052493;28;20043;-75
2023/08/04 12:17:39;;;;;;;3.00;0.77;;;21.30;99.90;;;;;;5064713;28;20112;-75
2023/08/04 12:20:09;;;;;;;4.18;0.90;;;21.30;99.90;;;;;;5055886;28;20032;-75
2023/08/04 12:22:42;;;;;;;3.30;0.80;;;21.40;99.90;;;;;;5042124;28;20121;-75
2023/08/04 12:25:08;;;;;;;1.92;0.90;;;21.50;99.90;;;;;;5042632;28;20032;-75
2023/08/04 12:27:34;;;;;;;6.35;1.50;;;21.60;99.90;;;;;;5052753;28;20068;-75
2023/08/04 12:30:00;;;;;;;2.63;1.10;;;21.50;99.90;;;;;;5052573;28;20074;-75
2023/08/04 12:32:27;;;;;;;2.80;1.00;;;21.40;99.90;;;;;;5052354;28;20069;-75
2023/08/04 12:34:52;;;;;;;4.13;1.10;;;21.40;99.90;;;;;;5041806;28;20100;-76
2023/08/04 12:37:18;;;;;;;3.92;1.27;;;21.40;99.90;;;;;;5052251;28;20037;-75
2023/08/04 12:39:45;;;;;;;3.25;1.27;;;21.40;99.90;;;;;;5052342;28;20068;-76
2023/08/04 12:42:10;;;;;;;4.28;1.02;;;21.50;99.90;;;;;;5044611;28;20048;-75